sensor_id;sensor_type;location;lat;lon;timestamp;pressure;altitude;pressure_sealevel;temperature;humidity
59043;BME280;44826;51.596;5.624;2024-02-14T00:02:05;101316.97;;;6.82;100.00
59043;BME280;44826;51.596;5.624;2024-02-14T00:04:31;101316.97;;;6.82;100.00
59043;BME280;44826;51.596;5.624;2024-02-14T00:06:56;101310.91;;;6.85;100.00
59043;BME280;44826;51.596;5.624;2024-02-14T00:09:22;101309.16;;;6.86;100.00
59043;BME280;44826;51.596;5.624;2024-02-14T00:11:47;101308.31;;;6.87;100.00
59043;BME280;44826;51.596;5.624;2024-02-14T00:14:13;101298.84;;;6.87;100.00
59043;BME280;44826;51.596;5.624;2024-02-14T00:16:39;101303.13;;;6.90;100.00
59043;BME280;44826;51.596;5.624;2024-02-14T00:19:04;101312.63;;;6.89;100.00
59043;BME280;44826;51.596;5.624;2024-02-14T00:21:30;101304.00;;;6.90;100.00
59043;BME280;44826;51.596;5.624;2024-02-14T00:23:56;101296.22;;;6.92;100.00
59043;BME280;44826;51.596;5.624;2024-02-14T00:26:24;101301.41;;;6.92;100.00
59043;BME280;44826;51.596;5.624;2024-02-14T00:28:49;101285.88;;;6.92;100.00
59043;BME280;44826;51.596;5.624;2024-02-14T00:31:14;101291.91;;;6.95;100.00
59043;BME280;44826;51.596;5.624;2024-02-14T00:33:40;101282.41;;;6.97;100.00
59043;BME280;44826;51.596;5.624;2024-02-14T00:36:06;101273.81;;;6.97;100.00
59043;BME280;44826;51.596;5.624;2024-02-14T00:38:32;101278.97;;;7.00;100.00
59043;BME280;44826;51.596;5.624;2024-02-14T00:40:57;101291.88;;;7.03;100.00
59043;BME280;44826;51.596;5.624;2024-02-14T00:43:22;101286.72;;;7.05;100.00
59043;BME280;44826;51.596;5.624;2024-02-14T00:45:48;101272.03;;;7.05;100.00
59043;BME280;44826;51.596;5.624;2024-02-14T00:48:13;101279.81;;;7.07;100.00
59043;BME280;44826;51.596;5.624;2024-02-14T00:50:38;101279.78;;;7.05;100.00
59043;BME280;44826;51.596;5.624;2024-02-14T00:53:04;101282.38;;;7.08;100.00
59043;BME280;44826;51.596;5.624;2024-02-14T00:55:29;101273.75;;;7.09;100.00
59043;BME280;44826;51.596;5.624;2024-02-14T00:57:55;101272.00;;;7.11;100.00
59043;BME280;44826;51.596;5.624;2024-02-14T01:00:20;101278.91;;;7.12;100.00
59043;BME280;44826;51.596;5.624;2024-02-14T01:02:46;101284.94;;;7.13;100.00
59043;BME280;44826;51.596;5.624;2024-02-14T01:05:11;101277.19;;;7.14;100.00
59043;BME280;44826;51.596;5.624;2024-02-14T01:07:37;101286.66;;;7.16;100.00
59043;BME280;44826;51.596;5.624;2024-02-14T01:10:02;101281.44;;;7.19;100.00
59043;BME280;44826;51.596;5.624;2024-02-14T01:12:28;101281.44;;;7.22;100.00
59043;BME280;44826;51.596;5.624;2024-02-14T01:14:57;101288.34;;;7.23;100.00
59043;BME280;44826;51.596;5.624;2024-02-14T01:17:22;101288.34;;;7.26;100.00
59043;BME280;44826;51.596;5.624;2024-02-14T01:19:47;101286.63;;;7.25;100.00
59043;BME280;44826;51.596;5.624;2024-02-14T01:22:17;101285.75;;;7.26;100.00
59043;BME280;44826;51.596;5.624;2024-02-14T01:24:43;101276.25;;;7.28;100.00
59043;BME280;44826;51.596;5.624;2024-02-14T01:27:08;101288.31;;;7.31;100.00
59043;BME280;44826;51.596;5.624;2024-02-14T01:29:34;101284.88;;;7.33;100.00
59043;BME280;44826;51.596;5.624;2024-02-14T01:31:59;101280.53;;;7.34;100.00
59043;BME280;44826;51.596;5.624;2024-02-14T01:34:25;101280.50;;;7.35;100.00
59043;BME280;44826;51.596;5.624;2024-02-14T01:36:50;101282.22;;;7.36;100.00
59043;BME280;44826;51.596;5.624;2024-02-14T01:39:15;101276.19;;;7.37;100.00
59043;BME280;44826;51.596;5.624;2024-02-14T01:41:46;101278.75;;;7.40;100.00
59043;BME280;44826;51.596;5.624;2024-02-14T01:44:15;101278.75;;;7.43;100.00
59043;BME280;44826;51.596;5.624;2024-02-14T01:46:42;101274.41;;;7.47;100.00
59043;BME280;44826;51.596;5.624;2024-02-14T01:49:09;101278.72;;;7.50;100.00
59043;BME280;44826;51.596;5.624;2024-02-14T01:51:37;101270.94;;;7.51;100.00
59043;BME280;44826;51.596;5.624;2024-02-14T01:54:05;101277.84;;;7.52;100.00
59043;BME280;44826;51.596;5.624;2024-02-14T01:56:31;101278.69;;;7.56;100.00
59043;BME280;44826;51.596;5.624;2024-02-14T01:58:57;101275.22;;;7.60;100.00
59043;BME280;44826;51.596;5.624;2024-02-14T02:01:23;101281.25;;;7.62;100.00
59043;BME280;44826;51.596;5.624;2024-02-14T02:03:49;101270.00;;;7.66;100.00
59043;BME280;44826;51.596;5.624;2024-02-14T02:06:14;101278.63;;;7.68;100.00
59043;BME280;44826;51.596;5.624;2024-02-14T02:08:43;101274.28;;;7.72;100.00
59043;BME280;44826;51.596;5.624;2024-02-14T02:11:08;101283.72;;;7.74;100.00
59043;BME280;44826;51.596;5.624;2024-02-14T02:13:34;101281.13;;;7.78;100.00
59043;BME280;44826;51.596;5.624;2024-02-14T02:15:59;101272.50;;;7.79;100.00
59043;BME280;44826;51.596;5.624;2024-02-14T02:18:26;101285.41;;;7.80;100.00
59043;BME280;44826;51.596;5.624;2024-02-14T02:20:51;101288.03;;;7.82;100.00
59043;BME280;44826;51.596;5.624;2024-02-14T02:23:17;101288.88;;;7.82;100.00
59043;BME280;44826;51.596;5.624;2024-02-14T02:25:43;101287.16;;;7.83;100.00
59043;BME280;44826;51.596;5.624;2024-02-14T02:28:09;101287.16;;;7.80;100.00
59043;BME280;44826;51.596;5.624;2024-02-14T02:30:35;101285.44;;;7.79;100.00
59043;BME280;44826;51.596;5.624;2024-02-14T02:33:01;101283.72;;;7.81;100.00
59043;BME280;44826;51.596;5.624;2024-02-14T02:35:28;101287.13;;;7.81;100.00
59043;BME280;44826;51.596;5.624;2024-02-14T02:37:53;101275.06;;;7.82;100.00
59043;BME280;44826;51.596;5.624;2024-02-14T02:40:19;101275.94;;;7.81;100.00
59043;BME280;44826;51.596;5.624;2024-02-14T02:42:46;101271.63;;;7.80;100.00
59043;BME280;44826;51.596;5.624;2024-02-14T02:45:12;101297.53;;;7.80;100.00
59043;BME280;44826;51.596;5.624;2024-02-14T02:47:37;101275.94;;;7.79;100.00
59043;BME280;44826;51.596;5.624;2024-02-14T02:50:03;101278.53;;;7.81;100.00
59043;BME280;44826;51.596;5.624;2024-02-14T02:52:28;101275.91;;;7.82;100.00
59043;BME280;44826;51.596;5.624;2024-02-14T02:54:54;101275.91;;;7.84;100.00
59043;BME280;44826;51.596;5.624;2024-02-14T02:57:20;101271.59;;;7.83;100.00
59043;BME280;44826;51.596;5.624;2024-02-14T02:59:45;101275.06;;;7.82;100.00
59043;BME280;44826;51.596;5.624;2024-02-14T03:02:12;101269.88;;;7.82;100.00
59043;BME280;44826;51.596;5.624;2024-02-14T03:04:38;101279.34;;;7.84;100.00
59043;BME280;44826;51.596;5.624;2024-02-14T03:07:04;101277.66;;;7.82;100.00
59043;BME280;44826;51.596;5.624;2024-02-14T03:09:34;101275.06;;;7.82;100.00
59043;BME280;44826;51.596;5.624;2024-02-14T03:12:00;101280.25;;;7.82;100.00
59043;BME280;44826;51.596;5.624;2024-02-14T03:14:31;101278.50;;;7.84;100.00
59043;BME280;44826;51.596;5.624;2024-02-14T03:17:02;101277.63;;;7.83;100.00
59043;BME280;44826;51.596;5.624;2024-02-14T03:19:28;101279.38;;;7.83;100.00
59043;BME280;44826;51.596;5.624;2024-02-14T03:21:57;101285.38;;;7.86;100.00
59043;BME280;44826;51.596;5.624;2024-02-14T03:24:23;101283.63;;;7.87;100.00
59043;BME280;44826;51.596;5.624;2024-02-14T03:26:51;101283.63;;;7.90;100.00
59043;BME280;44826;51.596;5.624;2024-02-14T03:29:16;101288.78;;;7.93;100.00
59043;BME280;44826;51.596;5.624;2024-02-14T03:31:42;101298.31;;;7.93;100.00
59043;BME280;44826;51.596;5.624;2024-02-14T03:34:08;101298.28;;;7.94;100.00
59043;BME280;44826;51.596;5.624;2024-02-14T03:36:37;101287.91;;;7.96;100.00
59043;BME280;44826;51.596;5.624;2024-02-14T03:39:03;101299.13;;;7.96;100.00
59043;BME280;44826;51.596;5.624;2024-02-14T03:41:29;101306.03;;;7.97;100.00
59043;BME280;44826;51.596;5.624;2024-02-14T03:43:55;101298.25;;;7.97;100.00
59043;BME280;44826;51.596;5.624;2024-02-14T03:46:23;101293.06;;;8.00;100.00
59043;BME280;44826;51.596;5.624;2024-02-14T03:48:49;101288.72;;;8.02;100.00
59043;BME280;44826;51.596;5.624;2024-02-14T03:51:14;101293.03;;;8.05;100.00
59043;BME280;44826;51.596;5.624;2024-02-14T03:53:40;101283.50;;;8.07;100.00
59043;BME280;44826;51.596;5.624;2024-02-14T03:56:06;101289.53;;;8.08;100.00
59043;BME280;44826;51.596;5.624;2024-02-14T03:58:35;101286.09;;;8.07;100.00
59043;BME280;44826;51.596;5.624;2024-02-14T04:01:03;101299.03;;;8.09;100.00
59043;BME280;44826;51.596;5.624;2024-02-14T04:03:28;101291.25;;;8.09;100.00
59043;BME280;44826;51.596;5.624;2024-02-14T04:05:54;101299.03;;;8.10;100.00
59043;BME280;44826;51.596;5.624;2024-02-14T04:08:19;101297.25;;;8.12;100.00
59043;BME280;44826;51.596;5.624;2024-02-14T04:10:45;101307.66;;;8.11;100.00
59043;BME280;44826;51.596;5.624;2024-02-14T04:13:11;101301.56;;;8.13;100.00
59043;BME280;44826;51.596;5.624;2024-02-14T04:15:36;101303.31;;;8.14;100.00
59043;BME280;44826;51.596;5.624;2024-02-14T04:18:02;101305.91;;;8.16;100.00
59043;BME280;44826;51.596;5.624;2024-02-14T04:20:29;101312.81;;;8.17;100.00
59043;BME280;44826;51.596;5.624;2024-02-14T04:22:54;101312.75;;;8.20;100.00
59043;BME280;44826;51.596;5.624;2024-02-14T04:25:20;101311.88;;;8.23;100.00
59043;BME280;44826;51.596;5.624;2024-02-14T04:27:46;101313.59;;;8.24;100.00
59043;BME280;44826;51.596;5.624;2024-02-14T04:30:11;101316.16;;;8.25;100.00
59043;BME280;44826;51.596;5.624;2024-02-14T04:32:37;101316.16;;;8.28;100.00
59043;BME280;44826;51.596;5.624;2024-02-14T04:35:02;101313.53;;;8.31;100.00
59043;BME280;44826;51.596;5.624;2024-02-14T04:37:28;101323.88;;;8.33;100.00
59043;BME280;44826;51.596;5.624;2024-02-14T04:39:54;101317.81;;;8.34;100.00
59043;BME280;44826;51.596;5.624;2024-02-14T04:42:19;101319.56;;;8.37;100.00
59043;BME280;44826;51.596;5.624;2024-02-14T04:44:45;101325.56;;;8.40;100.00
59043;BME280;44826;51.596;5.624;2024-02-14T04:47:11;101321.22;;;8.42;100.00
59043;BME280;44826;51.596;5.624;2024-02-14T04:49:36;101327.25;;;8.44;100.00
59043;BME280;44826;51.596;5.624;2024-02-14T04:52:02;101329.00;;;8.42;100.00
59043;BME280;44826;51.596;5.624;2024-02-14T04:54:27;101325.53;;;8.43;100.00
59043;BME280;44826;51.596;5.624;2024-02-14T04:56:53;101334.16;;;8.45;100.00
59043;BME280;44826;51.596;5.624;2024-02-14T04:59:19;101321.19;;;8.47;100.00
59043;BME280;44826;51.596;5.624;2024-02-14T05:01:44;101328.09;;;8.49;100.00
59043;BME280;44826;51.596;5.624;2024-02-14T05:04:10;101337.59;;;8.52;100.00
59043;BME280;44826;51.596;5.624;2024-02-14T05:06:35;101343.66;;;8.51;100.00
59043;BME280;44826;51.596;5.624;2024-02-14T05:09:01;101338.47;;;8.51;100.00
59043;BME280;44826;51.596;5.624;2024-02-14T05:11:27;101334.13;;;8.53;100.00
59043;BME280;44826;51.596;5.624;2024-02-14T05:13:52;101342.78;;;8.52;100.00
59043;BME280;44826;51.596;5.624;2024-02-14T05:16:18;101342.78;;;8.50;100.00
59043;BME280;44826;51.596;5.624;2024-02-14T05:18:44;101332.41;;;8.50;100.00
59043;BME280;44826;51.596;5.624;2024-02-14T05:21:09;101347.13;;;8.50;100.00
59043;BME280;44826;51.596;5.624;2024-02-14T05:23:34;101342.78;;;8.50;100.00
59043;BME280;44826;51.596;5.624;2024-02-14T05:26:02;101336.72;;;8.47;100.00
59043;BME280;44826;51.596;5.624;2024-02-14T05:28:28;101343.63;;;8.46;100.00
59043;BME280;44826;51.596;5.624;2024-02-14T05:30:54;101347.94;;;8.47;100.00
59043;BME280;44826;51.596;5.624;2024-02-14T05:33:19;101348.00;;;8.49;100.00
59043;BME280;44826;51.596;5.624;2024-02-14T05:35:50;101347.13;;;8.50;100.00
59043;BME280;44826;51.596;5.624;2024-02-14T05:38:15;101343.69;;;8.48;100.00
59043;BME280;44826;51.596;5.624;2024-02-14T05:40:41;101352.28;;;8.47;100.00
59043;BME280;44826;51.596;5.624;2024-02-14T05:43:12;101355.78;;;8.49;100.00
59043;BME280;44826;51.596;5.624;2024-02-14T05:45:37;101345.34;;;8.47;100.00
59043;BME280;44826;51.596;5.624;2024-02-14T05:48:05;101349.69;;;8.47;100.00
59043;BME280;44826;51.596;5.624;2024-02-14T05:50:31;101347.09;;;8.47;100.00
59043;BME280;44826;51.596;5.624;2024-02-14T05:52:56;101348.84;;;8.48;100.00
59043;BME280;44826;51.596;5.624;2024-02-14T05:55:22;101345.41;;;8.49;100.00
59043;BME280;44826;51.596;5.624;2024-02-14T05:57:48;101362.66;;;8.47;100.00
59043;BME280;44826;51.596;5.624;2024-02-14T06:00:14;101360.09;;;8.48;100.00
59043;BME280;44826;51.596;5.624;2024-02-14T06:02:39;101364.41;;;8.49;100.00
59043;BME280;44826;51.596;5.624;2024-02-14T06:05:06;101356.63;;;8.51;100.00
59043;BME280;44826;51.596;5.624;2024-02-14T06:07:35;101351.44;;;8.49;100.00
59043;BME280;44826;51.596;5.624;2024-02-14T06:10:00;101361.81;;;8.51;100.00
59043;BME280;44826;51.596;5.624;2024-02-14T06:12:26;101360.09;;;8.50;100.00
59043;BME280;44826;51.596;5.624;2024-02-14T06:14:51;101359.22;;;8.49;100.00
59043;BME280;44826;51.596;5.624;2024-02-14T06:17:16;101364.41;;;8.49;100.00
59043;BME280;44826;51.596;5.624;2024-02-14T06:19:42;101361.81;;;8.51;100.00
59043;BME280;44826;51.596;5.624;2024-02-14T06:22:07;101371.31;;;8.49;100.00
59043;BME280;44826;51.596;5.624;2024-02-14T06:24:32;101373.88;;;8.54;100.00
59043;BME280;44826;51.596;5.624;2024-02-14T06:26:58;101369.59;;;8.51;100.00
59043;BME280;44826;51.596;5.624;2024-02-14T06:29:23;101384.28;;;8.50;100.00
59043;BME280;44826;51.596;5.624;2024-02-14T06:31:48;101394.66;;;8.52;100.00
59043;BME280;44826;51.596;5.624;2024-02-14T06:34:14;101392.88;;;8.54;100.00
59043;BME280;44826;51.596;5.624;2024-02-14T06:36:40;101392.88;;;8.56;100.00
59043;BME280;44826;51.596;5.624;2024-02-14T06:39:06;101385.09;;;8.54;100.00
59043;BME280;44826;51.596;5.624;2024-02-14T06:41:32;101380.81;;;8.53;100.00
59043;BME280;44826;51.596;5.624;2024-02-14T06:43:57;101392.88;;;8.54;100.00
59043;BME280;44826;51.596;5.624;2024-02-14T06:46:23;101401.53;;;8.55;100.00
59043;BME280;44826;51.596;5.624;2024-02-14T06:48:48;101404.97;;;8.55;100.00
59043;BME280;44826;51.596;5.624;2024-02-14T06:51:14;101407.56;;;8.55;100.00
59043;BME280;44826;51.596;5.624;2024-02-14T06:53:39;101404.09;;;8.56;100.00
59043;BME280;44826;51.596;5.624;2024-02-14T06:56:05;101404.97;;;8.57;100.00
59043;BME280;44826;51.596;5.624;2024-02-14T06:58:30;101406.69;;;8.58;100.00
59043;BME280;44826;51.596;5.624;2024-02-14T07:00:56;101410.13;;;8.58;100.00
59043;BME280;44826;51.596;5.624;2024-02-14T07:03:21;101410.13;;;8.58;100.00
59043;BME280;44826;51.596;5.624;2024-02-14T07:05:46;101407.53;;;8.61;100.00
59043;BME280;44826;51.596;5.624;2024-02-14T07:08:12;101414.44;;;8.62;100.00
59043;BME280;44826;51.596;5.624;2024-02-14T07:10:37;101415.28;;;8.63;100.00
59043;BME280;44826;51.596;5.624;2024-02-14T07:13:02;101426.50;;;8.65;100.00
59043;BME280;44826;51.596;5.624;2024-02-14T07:15:28;101417.00;;;8.65;100.00
59043;BME280;44826;51.596;5.624;2024-02-14T07:17:56;101422.19;;;8.69;100.00
59043;BME280;44826;51.596;5.624;2024-02-14T07:20:23;101414.41;;;8.69;100.00
59043;BME280;44826;51.596;5.624;2024-02-14T07:22:51;101421.31;;;8.70;100.00
59043;BME280;44826;51.596;5.624;2024-02-14T07:25:19;101423.03;;;8.71;100.00
59043;BME280;44826;51.596;5.624;2024-02-14T07:27:44;101435.06;;;8.75;100.00
59043;BME280;44826;51.596;5.624;2024-02-14T07:30:11;101422.13;;;8.73;100.00
59043;BME280;44826;51.596;5.624;2024-02-14T07:32:37;101416.03;;;8.76;100.00
59043;BME280;44826;51.596;5.624;2024-02-14T07:35:03;101424.69;;;8.76;100.00
59043;BME280;44826;51.596;5.624;2024-02-14T07:37:30;101428.16;;;8.78;100.00
59043;BME280;44826;51.596;5.624;2024-02-14T07:39:56;101425.56;;;8.78;100.00
59043;BME280;44826;51.596;5.624;2024-02-14T07:42:21;101423.81;;;8.79;100.00
59043;BME280;44826;51.596;5.624;2024-02-14T07:44:46;101416.03;;;8.76;100.00
59043;BME280;44826;51.596;5.624;2024-02-14T07:47:12;101427.28;;;8.76;100.00
59043;BME280;44826;51.596;5.624;2024-02-14T07:49:38;101421.22;;;8.76;100.00
59043;BME280;44826;51.596;5.624;2024-02-14T07:52:04;101429.00;;;8.76;100.00
59043;BME280;44826;51.596;5.624;2024-02-14T07:54:29;101430.72;;;8.77;100.00
59043;BME280;44826;51.596;5.624;2024-02-14T07:56:55;101440.25;;;8.78;100.00
59043;BME280;44826;51.596;5.624;2024-02-14T07:59:20;101435.06;;;8.78;100.00
59043;BME280;44826;51.596;5.624;2024-02-14T08:01:45;101437.66;;;8.78;100.00
59043;BME280;44826;51.596;5.624;2024-02-14T08:04:11;101429.88;;;8.78;100.00
59043;BME280;44826;51.596;5.624;2024-02-14T08:06:36;101431.59;;;8.79;100.00
59043;BME280;44826;51.596;5.624;2024-02-14T08:09:01;101432.47;;;8.79;100.00
59043;BME280;44826;51.596;5.624;2024-02-14T08:11:31;101441.94;;;8.82;100.00
59043;BME280;44826;51.596;5.624;2024-02-14T08:13:56;101446.25;;;8.83;100.00
59043;BME280;44826;51.596;5.624;2024-02-14T08:16:23;101446.22;;;8.85;100.00
59043;BME280;44826;51.596;5.624;2024-02-14T08:18:49;101440.19;;;8.84;100.00
59043;BME280;44826;51.596;5.624;2024-02-14T08:21:16;101446.25;;;8.86;100.00
59043;BME280;44826;51.596;5.624;2024-02-14T08:23:41;101451.44;;;8.86;100.00
59043;BME280;44826;51.596;5.624;2024-02-14T08:26:07;101449.69;;;8.87;100.00
59043;BME280;44826;51.596;5.624;2024-02-14T08:28:38;101452.25;;;8.88;100.00
59043;BME280;44826;51.596;5.624;2024-02-14T08:31:11;101446.22;;;8.88;100.00
59043;BME280;44826;51.596;5.624;2024-02-14T08:33:37;101451.38;;;8.89;100.00
59043;BME280;44826;51.596;5.624;2024-02-14T08:36:03;101441.00;;;8.89;100.00
59043;BME280;44826;51.596;5.624;2024-02-14T08:38:29;101442.72;;;8.90;100.00
59043;BME280;44826;51.596;5.624;2024-02-14T08:40:54;101452.22;;;8.91;100.00
59043;BME280;44826;51.596;5.624;2024-02-14T08:43:19;101447.88;;;8.93;100.00
59043;BME280;44826;51.596;5.624;2024-02-14T08:45:45;101453.06;;;8.96;100.00
59043;BME280;44826;51.596;5.624;2024-02-14T08:48:10;101456.50;;;8.99;100.00
59043;BME280;44826;51.596;5.624;2024-02-14T08:50:35;101453.03;;;8.98;100.00
59043;BME280;44826;51.596;5.624;2024-02-14T08:53:01;101458.22;;;9.00;100.00
59043;BME280;44826;51.596;5.624;2024-02-14T08:55:26;101459.91;;;9.02;100.00
59043;BME280;44826;51.596;5.624;2024-02-14T08:57:52;101462.50;;;9.02;100.00
59043;BME280;44826;51.596;5.624;2024-02-14T09:00:17;101462.50;;;9.04;100.00
59043;BME280;44826;51.596;5.624;2024-02-14T09:02:47;101454.69;;;9.05;100.00
59043;BME280;44826;51.596;5.624;2024-02-14T09:05:13;101454.69;;;9.08;100.00
59043;BME280;44826;51.596;5.624;2024-02-14T09:07:38;101455.53;;;9.09;100.00
59043;BME280;44826;51.596;5.624;2024-02-14T09:10:04;101460.69;;;9.12;100.00
59043;BME280;44826;51.596;5.624;2024-02-14T09:12:31;101461.53;;;9.14;100.00
59043;BME280;44826;51.596;5.624;2024-02-14T09:14:57;101464.13;;;9.17;100.00
59043;BME280;44826;51.596;5.624;2024-02-14T09:17:22;101459.78;;;9.19;100.00
59043;BME280;44826;51.596;5.624;2024-02-14T09:19:48;101472.66;;;9.25;100.00
59043;BME280;44826;51.596;5.624;2024-02-14T09:22:13;101481.31;;;9.27;100.00
59043;BME280;44826;51.596;5.624;2024-02-14T09:24:43;101469.16;;;9.30;100.00
59043;BME280;44826;51.596;5.624;2024-02-14T09:27:09;101480.38;;;9.33;100.00
59043;BME280;44826;51.596;5.624;2024-02-14T09:29:34;101493.34;;;9.36;100.00
59043;BME280;44826;51.596;5.624;2024-02-14T09:32:02;101489.00;;;9.38;100.00
59043;BME280;44826;51.596;5.624;2024-02-14T09:34:28;101482.91;;;9.41;100.00
59043;BME280;44826;51.596;5.624;2024-02-14T09:36:54;101488.97;;;9.41;100.00
59043;BME280;44826;51.596;5.624;2024-02-14T09:39:21;101488.94;;;9.43;100.00
59043;BME280;44826;51.596;5.624;2024-02-14T09:41:51;101488.06;;;9.44;100.00
59043;BME280;44826;51.596;5.624;2024-02-14T09:44:20;101482.84;;;9.47;100.00
59043;BME280;44826;51.596;5.624;2024-02-14T09:46:47;101484.56;;;9.48;100.00
59043;BME280;44826;51.596;5.624;2024-02-14T09:49:14;101490.59;;;9.50;100.00
59043;BME280;44826;51.596;5.624;2024-02-14T09:51:42;101496.63;;;9.54;100.00
59043;BME280;44826;51.596;5.624;2024-02-14T09:54:10;101498.31;;;9.56;100.00
59043;BME280;44826;51.596;5.624;2024-02-14T09:56:36;101492.25;;;9.59;100.00
59043;BME280;44826;51.596;5.624;2024-02-14T09:59:02;101502.56;;;9.64;100.00
59043;BME280;44826;51.596;5.624;2024-02-14T10:01:28;101499.94;;;9.67;100.00
59043;BME280;44826;51.596;5.624;2024-02-14T10:03:54;101505.97;;;9.72;100.00
59043;BME280;44826;51.596;5.624;2024-02-14T10:06:21;101505.03;;;9.76;100.00
59043;BME280;44826;51.596;5.624;2024-02-14T10:08:47;101501.53;;;9.80;100.00
59043;BME280;44826;51.596;5.624;2024-02-14T10:11:14;101494.53;;;9.85;100.00
59043;BME280;44826;51.596;5.624;2024-02-14T10:13:40;101501.44;;;9.90;100.00
59043;BME280;44826;51.596;5.624;2024-02-14T10:16:06;101491.03;;;9.90;100.00
59043;BME280;44826;51.596;5.624;2024-02-14T10:18:34;101503.09;;;9.94;100.00
59043;BME280;44826;51.596;5.624;2024-02-14T10:20:59;101495.28;;;9.94;100.00
59043;BME280;44826;51.596;5.624;2024-02-14T10:23:27;101501.31;;;9.96;100.00
59043;BME280;44826;51.596;5.624;2024-02-14T10:25:53;101507.41;;;9.96;100.00
59043;BME280;44826;51.596;5.624;2024-02-14T10:28:21;101516.91;;;9.99;100.00
59043;BME280;44826;51.596;5.624;2024-02-14T10:30:47;101518.63;;;10.00;100.00
59043;BME280;44826;51.596;5.624;2024-02-14T10:33:15;101522.94;;;9.99;100.00
59043;BME280;44826;51.596;5.624;2024-02-14T10:35:42;101514.25;;;10.00;100.00
59043;BME280;44826;51.596;5.624;2024-02-14T10:38:08;101526.41;;;10.00;100.00
59043;BME280;44826;51.596;5.624;2024-02-14T10:40:35;101523.81;;;10.00;100.00
59043;BME280;44826;51.596;5.624;2024-02-14T10:43:01;101522.94;;;9.99;100.00
59043;BME280;44826;51.596;5.624;2024-02-14T10:45:27;101523.81;;;10.00;100.00
59043;BME280;44826;51.596;5.624;2024-02-14T10:47:56;101524.66;;;10.02;100.00
59043;BME280;44826;51.596;5.624;2024-02-14T10:50:24;101525.47;;;10.06;100.00
59043;BME280;44826;51.596;5.624;2024-02-14T10:52:53;101525.47;;;10.07;100.00
59043;BME280;44826;51.596;5.624;2024-02-14T10:55:20;101519.31;;;10.11;100.00
59043;BME280;44826;51.596;5.624;2024-02-14T10:57:46;101525.38;;;10.13;100.00
59043;BME280;44826;51.596;5.624;2024-02-14T11:00:14;101529.66;;;10.17;100.00
59043;BME280;44826;51.596;5.624;2024-02-14T11:02:41;101522.69;;;10.18;100.00
59043;BME280;44826;51.596;5.624;2024-02-14T11:05:13;101522.75;;;10.16;100.00
59043;BME280;44826;51.596;5.624;2024-02-14T11:07:46;101527.06;;;10.17;100.00
59043;BME280;44826;51.596;5.624;2024-02-14T11:10:16;101528.78;;;10.18;100.00
59043;BME280;44826;51.596;5.624;2024-02-14T11:12:42;101522.69;;;10.18;100.00
59043;BME280;44826;51.596;5.624;2024-02-14T11:15:20;101517.53;;;10.16;100.00
59043;BME280;44826;51.596;5.624;2024-02-14T11:17:47;101513.19;;;10.18;100.00
59043;BME280;44826;51.596;5.624;2024-02-14T11:20:31;101508.78;;;10.22;100.00
59043;BME280;44826;51.596;5.624;2024-02-14T11:23:02;101513.91;;;10.27;100.00
59043;BME280;44826;51.596;5.624;2024-02-14T11:25:37;101504.31;;;10.32;100.00
59043;BME280;44826;51.596;5.624;2024-02-14T11:28:24;101509.53;;;10.32;100.00
59043;BME280;44826;51.596;5.624;2024-02-14T11:30:51;101512.09;;;10.33;100.00
59043;BME280;44826;51.596;5.624;2024-02-14T11:33:21;101506.03;;;10.33;100.00
59043;BME280;44826;51.596;5.624;2024-02-14T11:35:51;101510.41;;;10.32;100.00
59043;BME280;44826;51.596;5.624;2024-02-14T11:38:17;101505.25;;;10.29;100.00
59043;BME280;44826;51.596;5.624;2024-02-14T11:40:43;101509.59;;;10.26;100.00
59043;BME280;44826;51.596;5.624;2024-02-14T11:43:19;101504.47;;;10.23;100.00
59043;BME280;44826;51.596;5.624;2024-02-14T11:45:45;101497.53;;;10.22;100.00
59043;BME280;44826;51.596;5.624;2024-02-14T11:48:15;101503.63;;;10.19;100.00
59043;BME280;44826;51.596;5.624;2024-02-14T11:50:45;101505.38;;;10.18;100.00
59043;BME280;44826;51.596;5.624;2024-02-14T11:53:12;101501.06;;;10.17;100.00
59043;BME280;44826;51.596;5.624;2024-02-14T11:55:39;101496.75;;;10.16;100.00
59043;BME280;44826;51.596;5.624;2024-02-14T11:58:11;101502.81;;;10.15;100.00
59043;BME280;44826;51.596;5.624;2024-02-14T12:00:41;101487.25;;;10.14;100.00
59043;BME280;44826;51.596;5.624;2024-02-14T12:03:09;101489.81;;;10.15;100.00
59043;BME280;44826;51.596;5.624;2024-02-14T12:05:36;101485.50;;;10.14;100.00
59043;BME280;44826;51.596;5.624;2024-02-14T12:08:04;101484.66;;;10.12;100.00
59043;BME280;44826;51.596;5.624;2024-02-14T12:10:31;101489.88;;;10.11;100.00
59043;BME280;44826;51.596;5.624;2024-02-14T12:12:57;101482.09;;;10.09;100.00
59043;BME280;44826;51.596;5.624;2024-02-14T12:15:26;101488.22;;;10.05;100.00
59043;BME280;44826;51.596;5.624;2024-02-14T12:17:51;101489.06;;;10.06;100.00
59043;BME280;44826;51.596;5.624;2024-02-14T12:20:21;101487.34;;;10.06;100.00
59043;BME280;44826;51.596;5.624;2024-02-14T12:22:50;101487.34;;;10.06;100.00
59043;BME280;44826;51.596;5.624;2024-02-14T12:25:15;101494.25;;;10.09;100.00
59043;BME280;44826;51.596;5.624;2024-02-14T12:27:41;101483.81;;;10.10;100.00
59043;BME280;44826;51.596;5.624;2024-02-14T12:30:07;101484.69;;;10.11;100.00
59043;BME280;44826;51.596;5.624;2024-02-14T12:32:33;101489.00;;;10.10;100.00
59043;BME280;44826;51.596;5.624;2024-02-14T12:34:59;101482.09;;;10.09;100.00
59043;BME280;44826;51.596;5.624;2024-02-14T12:37:24;101486.47;;;10.07;100.00
59043;BME280;44826;51.596;5.624;2024-02-14T12:39:50;101478.69;;;10.07;100.00
59043;BME280;44826;51.596;5.624;2024-02-14T12:42:15;101480.38;;;10.08;100.00
59043;BME280;44826;51.596;5.624;2024-02-14T12:44:43;101477.78;;;10.07;100.00